sensor_id;sensor_type;location;lat;lon;timestamp;P1;durP1;ratioP1;P2;durP2;ratioP2
8058;SDS011;4072;42.668;23.396;2023-08-07T00:00:45;1.47;;;1.37;;
8058;SDS011;4072;42.668;23.396;2023-08-07T00:03:13;1.60;;;1.50;;
8058;SDS011;4072;42.668;23.396;2023-08-07T00:05:45;1.70;;;1.60;;
8058;SDS011;4072;42.668;23.396;2023-08-07T00:08:13;1.80;;;1.67;;
8058;SDS011;4072;42.668;23.396;2023-08-07T00:10:43;1.80;;;1.47;;
8058;SDS011;4072;42.668;23.396;2023-08-07T00:13:11;1.53;;;1.43;;
8058;SDS011;4072;42.668;23.396;2023-08-07T00:15:40;1.90;;;1.80;;
8058;SDS011;4072;42.668;23.396;2023-08-07T00:18:08;2.57;;;1.93;;
8058;SDS011;4072;42.668;23.396;2023-08-07T00:20:37;2.47;;;2.23;;
8058;SDS011;4072;42.668;23.396;2023-08-07T00:23:05;1.90;;;1.70;;
8058;SDS011;4072;42.668;23.396;2023-08-07T00:25:33;1.57;;;1.47;;
8058;SDS011;4072;42.668;23.396;2023-08-07T00:28:02;1.63;;;1.37;;
8058;SDS011;4072;42.668;23.396;2023-08-07T00:30:31;1.50;;;1.40;;
8058;SDS011;4072;42.668;23.396;2023-08-07T00:32:59;2.83;;;1.60;;
8058;SDS011;4072;42.668;23.396;2023-08-07T00:35:27;3.23;;;1.90;;
8058;SDS011;4072;42.668;23.396;2023-08-07T00:37:55;1.50;;;1.40;;
8058;SDS011;4072;42.668;23.396;2023-08-07T00:40:24;1.30;;;1.20;;
8058;SDS011;4072;42.668;23.396;2023-08-07T00:42:52;2.03;;;1.73;;
8058;SDS011;4072;42.668;23.396;2023-08-07T00:45:24;1.67;;;1.57;;
8058;SDS011;4072;42.668;23.396;2023-08-07T00:47:53;2.93;;;1.87;;
8058;SDS011;4072;42.668;23.396;2023-08-07T00:50:22;2.27;;;2.07;;
8058;SDS011;4072;42.668;23.396;2023-08-07T00:52:59;3.20;;;2.63;;
8058;SDS011;4072;42.668;23.396;2023-08-07T00:55:28;3.70;;;3.23;;
8058;SDS011;4072;42.668;23.396;2023-08-07T00:57:57;3.20;;;2.90;;
8058;SDS011;4072;42.668;23.396;2023-08-07T01:00:28;2.80;;;2.60;;
8058;SDS011;4072;42.668;23.396;2023-08-07T01:02:57;2.63;;;2.43;;
8058;SDS011;4072;42.668;23.396;2023-08-07T01:05:25;2.93;;;2.73;;
8058;SDS011;4072;42.668;23.396;2023-08-07T01:07:54;2.93;;;2.73;;
8058;SDS011;4072;42.668;23.396;2023-08-07T01:10:24;2.70;;;2.20;;
8058;SDS011;4072;42.668;23.396;2023-08-07T01:13:04;2.33;;;2.23;;
8058;SDS011;4072;42.668;23.396;2023-08-07T01:15:39;2.80;;;2.50;;
8058;SDS011;4072;42.668;23.396;2023-08-07T01:18:07;2.57;;;2.37;;
8058;SDS011;4072;42.668;23.396;2023-08-07T01:20:36;2.70;;;2.50;;
8058;SDS011;4072;42.668;23.396;2023-08-07T01:23:06;2.40;;;2.20;;
8058;SDS011;4072;42.668;23.396;2023-08-07T01:25:35;2.60;;;2.40;;
8058;SDS011;4072;42.668;23.396;2023-08-07T01:28:06;2.27;;;2.13;;
8058;SDS011;4072;42.668;23.396;2023-08-07T01:30:44;2.83;;;2.63;;
8058;SDS011;4072;42.668;23.396;2023-08-07T01:33:17;2.63;;;2.43;;
8058;SDS011;4072;42.668;23.396;2023-08-07T01:35:53;3.20;;;2.90;;
8058;SDS011;4072;42.668;23.396;2023-08-07T01:38:26;2.40;;;2.20;;
8058;SDS011;4072;42.668;23.396;2023-08-07T01:40:56;2.83;;;2.63;;
8058;SDS011;4072;42.668;23.396;2023-08-07T01:43:25;3.23;;;2.97;;
8058;SDS011;4072;42.668;23.396;2023-08-07T01:45:54;3.87;;;3.47;;
8058;SDS011;4072;42.668;23.396;2023-08-07T01:48:22;3.17;;;2.97;;
8058;SDS011;4072;42.668;23.396;2023-08-07T01:50:52;4.20;;;3.80;;
8058;SDS011;4072;42.668;23.396;2023-08-07T01:53:21;3.10;;;2.90;;
8058;SDS011;4072;42.668;23.396;2023-08-07T01:55:50;3.70;;;3.40;;
8058;SDS011;4072;42.668;23.396;2023-08-07T01:58:19;3.70;;;3.30;;
8058;SDS011;4072;42.668;23.396;2023-08-07T02:00:47;3.37;;;3.07;;
8058;SDS011;4072;42.668;23.396;2023-08-07T02:03:15;3.57;;;3.27;;
8058;SDS011;4072;42.668;23.396;2023-08-07T02:05:44;3.63;;;3.20;;
8058;SDS011;4072;42.668;23.396;2023-08-07T02:08:12;3.20;;;3.00;;
8058;SDS011;4072;42.668;23.396;2023-08-07T02:10:42;4.93;;;2.90;;
8058;SDS011;4072;42.668;23.396;2023-08-07T02:13:13;3.70;;;3.40;;
8058;SDS011;4072;42.668;23.396;2023-08-07T02:15:41;3.53;;;3.23;;
8058;SDS011;4072;42.668;23.396;2023-08-07T02:18:09;3.60;;;3.30;;
8058;SDS011;4072;42.668;23.396;2023-08-07T02:20:37;5.33;;;4.43;;
8058;SDS011;4072;42.668;23.396;2023-08-07T02:23:06;7.67;;;5.37;;
8058;SDS011;4072;42.668;23.396;2023-08-07T02:25:35;6.33;;;5.73;;
8058;SDS011;4072;42.668;23.396;2023-08-07T02:28:04;5.27;;;4.77;;
8058;SDS011;4072;42.668;23.396;2023-08-07T02:30:34;4.70;;;4.20;;
8058;SDS011;4072;42.668;23.396;2023-08-07T02:33:02;4.30;;;3.93;;
8058;SDS011;4072;42.668;23.396;2023-08-07T02:35:31;4.97;;;4.33;;
8058;SDS011;4072;42.668;23.396;2023-08-07T02:38:02;4.63;;;4.10;;
8058;SDS011;4072;42.668;23.396;2023-08-07T02:40:30;4.90;;;4.50;;
8058;SDS011;4072;42.668;23.396;2023-08-07T02:42:58;4.10;;;3.77;;
8058;SDS011;4072;42.668;23.396;2023-08-07T02:45:27;5.00;;;4.50;;
8058;SDS011;4072;42.668;23.396;2023-08-07T02:47:57;4.70;;;4.07;;
8058;SDS011;4072;42.668;23.396;2023-08-07T02:50:25;5.07;;;4.67;;
8058;SDS011;4072;42.668;23.396;2023-08-07T02:52:56;6.00;;;5.43;;
8058;SDS011;4072;42.668;23.396;2023-08-07T02:55:24;5.10;;;4.60;;
8058;SDS011;4072;42.668;23.396;2023-08-07T02:57:52;6.97;;;5.40;;
8058;SDS011;4072;42.668;23.396;2023-08-07T03:00:20;5.43;;;4.93;;
8058;SDS011;4072;42.668;23.396;2023-08-07T03:02:50;6.10;;;5.60;;
8058;SDS011;4072;42.668;23.396;2023-08-07T03:05:19;6.07;;;4.97;;
8058;SDS011;4072;42.668;23.396;2023-08-07T03:07:48;5.93;;;5.43;;
8058;SDS011;4072;42.668;23.396;2023-08-07T03:10:16;5.50;;;4.83;;
8058;SDS011;4072;42.668;23.396;2023-08-07T03:12:44;5.03;;;4.63;;
8058;SDS011;4072;42.668;23.396;2023-08-07T03:15:13;6.13;;;5.30;;
8058;SDS011;4072;42.668;23.396;2023-08-07T03:17:41;6.10;;;5.50;;
8058;SDS011;4072;42.668;23.396;2023-08-07T03:20:10;5.43;;;5.00;;
8058;SDS011;4072;42.668;23.396;2023-08-07T03:22:41;5.60;;;5.10;;
8058;SDS011;4072;42.668;23.396;2023-08-07T03:25:09;7.07;;;5.40;;
8058;SDS011;4072;42.668;23.396;2023-08-07T03:27:38;5.07;;;4.67;;
8058;SDS011;4072;42.668;23.396;2023-08-07T03:30:06;6.10;;;5.57;;
8058;SDS011;4072;42.668;23.396;2023-08-07T03:32:35;5.57;;;5.07;;
8058;SDS011;4072;42.668;23.396;2023-08-07T03:35:03;5.37;;;4.93;;
8058;SDS011;4072;42.668;23.396;2023-08-07T03:37:32;4.37;;;3.97;;
8058;SDS011;4072;42.668;23.396;2023-08-07T03:40:02;5.17;;;4.67;;
8058;SDS011;4072;42.668;23.396;2023-08-07T03:42:31;4.47;;;4.07;;
8058;SDS011;4072;42.668;23.396;2023-08-07T03:44:59;4.43;;;3.77;;
8058;SDS011;4072;42.668;23.396;2023-08-07T03:47:27;4.47;;;4.07;;
8058;SDS011;4072;42.668;23.396;2023-08-07T03:49:56;3.70;;;3.23;;
8058;SDS011;4072;42.668;23.396;2023-08-07T03:52:24;4.33;;;3.93;;
8058;SDS011;4072;42.668;23.396;2023-08-07T03:54:53;4.47;;;4.07;;
8058;SDS011;4072;42.668;23.396;2023-08-07T03:57:24;3.93;;;3.63;;
8058;SDS011;4072;42.668;23.396;2023-08-07T03:59:52;4.23;;;3.77;;
8058;SDS011;4072;42.668;23.396;2023-08-07T04:02:21;5.10;;;4.60;;
8058;SDS011;4072;42.668;23.396;2023-08-07T04:04:50;4.33;;;3.97;;
8058;SDS011;4072;42.668;23.396;2023-08-07T04:07:18;5.03;;;4.57;;
8058;SDS011;4072;42.668;23.396;2023-08-07T04:09:46;5.60;;;4.07;;
8058;SDS011;4072;42.668;23.396;2023-08-07T04:12:14;5.83;;;4.77;;
8058;SDS011;4072;42.668;23.396;2023-08-07T04:14:45;5.03;;;4.53;;
8058;SDS011;4072;42.668;23.396;2023-08-07T04:17:13;4.77;;;4.37;;
8058;SDS011;4072;42.668;23.396;2023-08-07T04:19:42;5.27;;;4.77;;
8058;SDS011;4072;42.668;23.396;2023-08-07T04:22:10;4.27;;;3.87;;
8058;SDS011;4072;42.668;23.396;2023-08-07T04:24:39;4.23;;;3.80;;
8058;SDS011;4072;42.668;23.396;2023-08-07T04:27:07;4.80;;;4.40;;
8058;SDS011;4072;42.668;23.396;2023-08-07T04:29:36;4.13;;;3.47;;
8058;SDS011;4072;42.668;23.396;2023-08-07T04:32:06;4.83;;;4.33;;
8058;SDS011;4072;42.668;23.396;2023-08-07T04:34:36;3.70;;;3.40;;
8058;SDS011;4072;42.668;23.396;2023-08-07T04:37:05;4.30;;;3.90;;
8058;SDS011;4072;42.668;23.396;2023-08-07T04:39:33;3.40;;;3.10;;
8058;SDS011;4072;42.668;23.396;2023-08-07T04:42:02;3.27;;;2.97;;
8058;SDS011;4072;42.668;23.396;2023-08-07T04:44:31;2.63;;;2.43;;
8058;SDS011;4072;42.668;23.396;2023-08-07T04:47:00;3.10;;;2.80;;
8058;SDS011;4072;42.668;23.396;2023-08-07T04:49:32;2.70;;;2.50;;
8058;SDS011;4072;42.668;23.396;2023-08-07T04:52:00;3.20;;;2.90;;
8058;SDS011;4072;42.668;23.396;2023-08-07T04:54:48;3.27;;;2.97;;
8058;SDS011;4072;42.668;23.396;2023-08-07T04:57:17;3.40;;;3.10;;
8058;SDS011;4072;42.668;23.396;2023-08-07T04:59:45;3.23;;;2.90;;
8058;SDS011;4072;42.668;23.396;2023-08-07T05:02:13;2.93;;;2.73;;
8058;SDS011;4072;42.668;23.396;2023-08-07T05:04:43;2.70;;;2.50;;
8058;SDS011;4072;42.668;23.396;2023-08-07T05:07:11;3.33;;;2.37;;
8058;SDS011;4072;42.668;23.396;2023-08-07T05:09:40;2.70;;;2.50;;
8058;SDS011;4072;42.668;23.396;2023-08-07T05:12:09;2.33;;;2.23;;
8058;SDS011;4072;42.668;23.396;2023-08-07T05:14:37;2.60;;;2.17;;
8058;SDS011;4072;42.668;23.396;2023-08-07T05:17:05;2.80;;;2.47;;
8058;SDS011;4072;42.668;23.396;2023-08-07T05:19:33;3.13;;;2.27;;
8058;SDS011;4072;42.668;23.396;2023-08-07T05:22:03;3.70;;;2.10;;
8058;SDS011;4072;42.668;23.396;2023-08-07T05:24:32;2.77;;;2.10;;
8058;SDS011;4072;42.668;23.396;2023-08-07T05:27:06;2.17;;;1.97;;
8058;SDS011;4072;42.668;23.396;2023-08-07T05:29:35;2.87;;;2.57;;
8058;SDS011;4072;42.668;23.396;2023-08-07T05:32:13;1.80;;;1.70;;
8058;SDS011;4072;42.668;23.396;2023-08-07T05:34:43;2.67;;;2.07;;
8058;SDS011;4072;42.668;23.396;2023-08-07T05:37:12;1.83;;;1.73;;
8058;SDS011;4072;42.668;23.396;2023-08-07T05:39:41;3.70;;;2.10;;
8058;SDS011;4072;42.668;23.396;2023-08-07T05:42:09;3.33;;;2.17;;
8058;SDS011;4072;42.668;23.396;2023-08-07T05:44:39;3.73;;;2.13;;
8058;SDS011;4072;42.668;23.396;2023-08-07T05:47:07;4.73;;;2.60;;
8058;SDS011;4072;42.668;23.396;2023-08-07T05:49:35;2.77;;;2.13;;
8058;SDS011;4072;42.668;23.396;2023-08-07T05:52:04;1.83;;;1.73;;
8058;SDS011;4072;42.668;23.396;2023-08-07T05:54:35;2.20;;;2.00;;
8058;SDS011;4072;42.668;23.396;2023-08-07T05:57:04;2.83;;;2.17;;
8058;SDS011;4072;42.668;23.396;2023-08-07T05:59:34;2.83;;;2.27;;
8058;SDS011;4072;42.668;23.396;2023-08-07T06:02:02;1.90;;;1.80;;
8058;SDS011;4072;42.668;23.396;2023-08-07T06:04:31;3.57;;;2.03;;
8058;SDS011;4072;42.668;23.396;2023-08-07T06:07:00;5.43;;;2.10;;
8058;SDS011;4072;42.668;23.396;2023-08-07T06:09:28;3.13;;;1.97;;
8058;SDS011;4072;42.668;23.396;2023-08-07T06:11:58;2.47;;;1.73;;
8058;SDS011;4072;42.668;23.396;2023-08-07T06:14:26;2.03;;;1.93;;
8058;SDS011;4072;42.668;23.396;2023-08-07T06:16:55;1.67;;;1.57;;
8058;SDS011;4072;42.668;23.396;2023-08-07T06:19:24;3.00;;;2.10;;
8058;SDS011;4072;42.668;23.396;2023-08-07T06:21:58;1.83;;;1.73;;
8058;SDS011;4072;42.668;23.396;2023-08-07T06:24:27;2.00;;;1.90;;
8058;SDS011;4072;42.668;23.396;2023-08-07T06:26:55;2.27;;;1.93;;
8058;SDS011;4072;42.668;23.396;2023-08-07T06:29:26;2.60;;;1.93;;
8058;SDS011;4072;42.668;23.396;2023-08-07T06:31:55;4.67;;;2.13;;
8058;SDS011;4072;42.668;23.396;2023-08-07T06:34:23;1.73;;;1.63;;
8058;SDS011;4072;42.668;23.396;2023-08-07T06:36:52;1.77;;;1.33;;
8058;SDS011;4072;42.668;23.396;2023-08-07T06:39:20;1.60;;;1.50;;
8058;SDS011;4072;42.668;23.396;2023-08-07T06:41:48;1.90;;;1.80;;
8058;SDS011;4072;42.668;23.396;2023-08-07T06:44:18;1.38;;;1.05;;
8058;SDS011;4072;42.668;23.396;2023-08-07T06:46:47;2.72;;;1.70;;
8058;SDS011;4072;42.668;23.396;2023-08-07T06:49:15;1.60;;;1.50;;
8058;SDS011;4072;42.668;23.396;2023-08-07T06:51:43;1.70;;;1.25;;
8058;SDS011;4072;42.668;23.396;2023-08-07T06:54:12;1.40;;;1.30;;
8058;SDS011;4072;42.668;23.396;2023-08-07T06:56:40;1.42;;;1.33;;
8058;SDS011;4072;42.668;23.396;2023-08-07T06:59:09;1.98;;;1.85;;
8058;SDS011;4072;42.668;23.396;2023-08-07T07:01:41;3.63;;;3.33;;
8058;SDS011;4072;42.668;23.396;2023-08-07T07:04:09;3.05;;;2.03;;
8058;SDS011;4072;42.668;23.396;2023-08-07T07:06:37;2.08;;;1.25;;
8058;SDS011;4072;42.668;23.396;2023-08-07T07:09:05;1.63;;;1.13;;
8058;SDS011;4072;42.668;23.396;2023-08-07T07:11:34;1.30;;;0.90;;
8058;SDS011;4072;42.668;23.396;2023-08-07T07:14:02;1.65;;;1.55;;
8058;SDS011;4072;42.668;23.396;2023-08-07T07:16:30;1.48;;;1.35;;
8058;SDS011;4072;42.668;23.396;2023-08-07T07:19:03;1.30;;;1.17;;
8058;SDS011;4072;42.668;23.396;2023-08-07T07:21:33;2.00;;;0.82;;
8058;SDS011;4072;42.668;23.396;2023-08-07T07:24:01;1.00;;;0.90;;
8058;SDS011;4072;42.668;23.396;2023-08-07T07:26:29;3.90;;;1.40;;
8058;SDS011;4072;42.668;23.396;2023-08-07T07:28:57;1.23;;;1.10;;
8058;SDS011;4072;42.668;23.396;2023-08-07T07:31:25;1.80;;;1.20;;
8058;SDS011;4072;42.668;23.396;2023-08-07T07:33:54;1.88;;;1.55;;
8058;SDS011;4072;42.668;23.396;2023-08-07T07:36:24;1.17;;;1.13;;
8058;SDS011;4072;42.668;23.396;2023-08-07T07:38:52;1.55;;;1.45;;
8058;SDS011;4072;42.668;23.396;2023-08-07T07:41:21;1.80;;;1.52;;
8058;SDS011;4072;42.668;23.396;2023-08-07T07:43:51;2.42;;;1.23;;
8058;SDS011;4072;42.668;23.396;2023-08-07T07:46:22;1.20;;;1.10;;
8058;SDS011;4072;42.668;23.396;2023-08-07T07:48:51;1.50;;;1.40;;
8058;SDS011;4072;42.668;23.396;2023-08-07T07:51:19;1.13;;;1.05;;
8058;SDS011;4072;42.668;23.396;2023-08-07T07:53:49;1.10;;;0.98;;
8058;SDS011;4072;42.668;23.396;2023-08-07T07:56:37;2.83;;;1.05;;
8058;SDS011;4072;42.668;23.396;2023-08-07T07:59:05;0.93;;;0.93;;
8058;SDS011;4072;42.668;23.396;2023-08-07T08:01:34;1.15;;;1.05;;
8058;SDS011;4072;42.668;23.396;2023-08-07T08:04:03;0.77;;;0.77;;
8058;SDS011;4072;42.668;23.396;2023-08-07T08:06:31;3.47;;;1.52;;
8058;SDS011;4072;42.668;23.396;2023-08-07T08:09:01;1.25;;;1.15;;
8058;SDS011;4072;42.668;23.396;2023-08-07T08:11:31;1.80;;;1.00;;
8058;SDS011;4072;42.668;23.396;2023-08-07T08:13:59;2.58;;;1.38;;
8058;SDS011;4072;42.668;23.396;2023-08-07T08:16:28;1.20;;;1.10;;
8058;SDS011;4072;42.668;23.396;2023-08-07T08:18:56;1.00;;;1.00;;
8058;SDS011;4072;42.668;23.396;2023-08-07T08:21:25;1.50;;;1.17;;
8058;SDS011;4072;42.668;23.396;2023-08-07T08:23:53;1.10;;;1.02;;
8058;SDS011;4072;42.668;23.396;2023-08-07T08:26:23;2.97;;;1.00;;
8058;SDS011;4072;42.668;23.396;2023-08-07T08:28:51;2.38;;;2.20;;
8058;SDS011;4072;42.668;23.396;2023-08-07T08:31:19;2.83;;;1.20;;
8058;SDS011;4072;42.668;23.396;2023-08-07T08:33:50;11.00;;;8.90;;
8058;SDS011;4072;42.668;23.396;2023-08-07T08:36:19;3.77;;;2.33;;
8058;SDS011;4072;42.668;23.396;2023-08-07T08:38:47;4.07;;;3.60;;
8058;SDS011;4072;42.668;23.396;2023-08-07T08:41:15;2.97;;;2.67;;
8058;SDS011;4072;42.668;23.396;2023-08-07T08:43:46;2.33;;;2.13;;
8058;SDS011;4072;42.668;23.396;2023-08-07T08:46:16;4.20;;;1.33;;
8058;SDS011;4072;42.668;23.396;2023-08-07T08:48:50;2.87;;;1.10;;
8058;SDS011;4072;42.668;23.396;2023-08-07T08:51:19;1.05;;;1.05;;
8058;SDS011;4072;42.668;23.396;2023-08-07T08:53:49;1.73;;;0.95;;
8058;SDS011;4072;42.668;23.396;2023-08-07T08:56:20;3.65;;;1.05;;
8058;SDS011;4072;42.668;23.396;2023-08-07T08:58:51;0.80;;;0.80;;
8058;SDS011;4072;42.668;23.396;2023-08-07T09:01:19;2.38;;;1.67;;
8058;SDS011;4072;42.668;23.396;2023-08-07T09:03:53;1.50;;;1.38;;
8058;SDS011;4072;42.668;23.396;2023-08-07T09:06:21;0.93;;;0.93;;
8058;SDS011;4072;42.668;23.396;2023-08-07T09:08:51;1.15;;;1.08;;
8058;SDS011;4072;42.668;23.396;2023-08-07T09:11:21;1.20;;;1.10;;
8058;SDS011;4072;42.668;23.396;2023-08-07T09:13:51;2.60;;;1.08;;
8058;SDS011;4072;42.668;23.396;2023-08-07T09:16:24;1.00;;;1.00;;
8058;SDS011;4072;42.668;23.396;2023-08-07T09:18:54;1.10;;;1.00;;
8058;SDS011;4072;42.668;23.396;2023-08-07T09:21:23;1.20;;;1.10;;
8058;SDS011;4072;42.668;23.396;2023-08-07T09:23:51;1.80;;;1.08;;
8058;SDS011;4072;42.668;23.396;2023-08-07T09:26:21;2.03;;;1.20;;
8058;SDS011;4072;42.668;23.396;2023-08-07T09:28:52;1.17;;;1.17;;
8058;SDS011;4072;42.668;23.396;2023-08-07T09:31:21;1.98;;;1.00;;
8058;SDS011;4072;42.668;23.396;2023-08-07T09:33:54;0.77;;;0.77;;
8058;SDS011;4072;42.668;23.396;2023-08-07T09:36:23;4.20;;;1.10;;
8058;SDS011;4072;42.668;23.396;2023-08-07T09:38:51;1.65;;;1.10;;
8058;SDS011;4072;42.668;23.396;2023-08-07T09:41:19;1.48;;;1.15;;
8058;SDS011;4072;42.668;23.396;2023-08-07T09:43:48;1.33;;;1.10;;
8058;SDS011;4072;42.668;23.396;2023-08-07T09:46:20;1.75;;;1.20;;
8058;SDS011;4072;42.668;23.396;2023-08-07T09:48:49;1.35;;;0.90;;
8058;SDS011;4072;42.668;23.396;2023-08-07T09:51:17;1.45;;;1.10;;
8058;SDS011;4072;42.668;23.396;2023-08-07T09:53:46;1.38;;;1.20;;
8058;SDS011;4072;42.668;23.396;2023-08-07T09:56:15;2.60;;;1.25;;
8058;SDS011;4072;42.668;23.396;2023-08-07T09:58:47;1.25;;;1.10;;
8058;SDS011;4072;42.668;23.396;2023-08-07T10:01:18;2.38;;;1.30;;
8058;SDS011;4072;42.668;23.396;2023-08-07T10:03:46;0.95;;;0.93;;
8058;SDS011;4072;42.668;23.396;2023-08-07T10:06:15;2.78;;;1.20;;
8058;SDS011;4072;42.668;23.396;2023-08-07T10:08:43;1.30;;;1.20;;
8058;SDS011;4072;42.668;23.396;2023-08-07T10:11:12;1.10;;;1.10;;
8058;SDS011;4072;42.668;23.396;2023-08-07T10:13:44;1.95;;;1.50;;
8058;SDS011;4072;42.668;23.396;2023-08-07T10:16:13;2.30;;;1.17;;
8058;SDS011;4072;42.668;23.396;2023-08-07T10:18:44;1.50;;;1.40;;
8058;SDS011;4072;42.668;23.396;2023-08-07T10:21:13;1.70;;;1.30;;
8058;SDS011;4072;42.668;23.396;2023-08-07T10:23:41;0.90;;;0.90;;
8058;SDS011;4072;42.668;23.396;2023-08-07T10:26:11;1.15;;;0.93;;
8058;SDS011;4072;42.668;23.396;2023-08-07T10:28:40;1.00;;;0.90;;
8058;SDS011;4072;42.668;23.396;2023-08-07T10:31:10;2.05;;;1.77;;
8058;SDS011;4072;42.668;23.396;2023-08-07T10:33:41;5.60;;;2.95;;
8058;SDS011;4072;42.668;23.396;2023-08-07T10:36:11;2.10;;;1.33;;
8058;SDS011;4072;42.668;23.396;2023-08-07T10:38:39;0.80;;;0.80;;
8058;SDS011;4072;42.668;23.396;2023-08-07T10:41:09;2.90;;;1.30;;
8058;SDS011;4072;42.668;23.396;2023-08-07T10:43:40;2.03;;;1.63;;
8058;SDS011;4072;42.668;23.396;2023-08-07T10:46:11;1.52;;;1.33;;
8058;SDS011;4072;42.668;23.396;2023-08-07T10:48:42;1.52;;;1.30;;
8058;SDS011;4072;42.668;23.396;2023-08-07T10:51:18;3.67;;;1.23;;
8058;SDS011;4072;42.668;23.396;2023-08-07T10:53:47;2.40;;;1.90;;
8058;SDS011;4072;42.668;23.396;2023-08-07T10:56:18;1.13;;;1.10;;
8058;SDS011;4072;42.668;23.396;2023-08-07T10:58:58;1.38;;;1.25;;
8058;SDS011;4072;42.668;23.396;2023-08-07T11:01:27;1.52;;;1.42;;
8058;SDS011;4072;42.668;23.396;2023-08-07T11:04:08;1.63;;;1.52;;
8058;SDS011;4072;42.668;23.396;2023-08-07T11:06:39;4.22;;;1.50;;
8058;SDS011;4072;42.668;23.396;2023-08-07T11:09:10;2.80;;;1.83;;
8058;SDS011;4072;42.668;23.396;2023-08-07T11:11:38;1.27;;;1.17;;
8058;SDS011;4072;42.668;23.396;2023-08-07T11:14:08;2.22;;;1.35;;
8058;SDS011;4072;42.668;23.396;2023-08-07T11:16:37;2.08;;;1.15;;
8058;SDS011;4072;42.668;23.396;2023-08-07T11:19:05;1.40;;;1.23;;
8058;SDS011;4072;42.668;23.396;2023-08-07T11:21:34;4.10;;;1.38;;
8058;SDS011;4072;42.668;23.396;2023-08-07T11:24:04;2.10;;;1.45;;
8058;SDS011;4072;42.668;23.396;2023-08-07T11:26:32;1.98;;;1.77;;
8058;SDS011;4072;42.668;23.396;2023-08-07T11:29:01;3.58;;;1.50;;
8058;SDS011;4072;42.668;23.396;2023-08-07T11:31:29;1.17;;;1.17;;
8058;SDS011;4072;42.668;23.396;2023-08-07T11:33:57;2.03;;;1.20;;
8058;SDS011;4072;42.668;23.396;2023-08-07T11:36:26;2.15;;;1.38;;
8058;SDS011;4072;42.668;23.396;2023-08-07T11:38:54;1.83;;;1.40;;
8058;SDS011;4072;42.668;23.396;2023-08-07T11:41:24;1.40;;;1.30;;
8058;SDS011;4072;42.668;23.396;2023-08-07T11:43:52;2.15;;;1.58;;
8058;SDS011;4072;42.668;23.396;2023-08-07T11:46:20;1.40;;;1.30;;
8058;SDS011;4072;42.668;23.396;2023-08-07T11:48:49;1.55;;;1.45;;
8058;SDS011;4072;42.668;23.396;2023-08-07T11:51:21;1.58;;;1.48;;
8058;SDS011;4072;42.668;23.396;2023-08-07T11:53:49;1.08;;;0.98;;
8058;SDS011;4072;42.668;23.396;2023-08-07T11:56:24;2.00;;;1.33;;
8058;SDS011;4072;42.668;23.396;2023-08-07T11:58:53;1.60;;;1.17;;
8058;SDS011;4072;42.668;23.396;2023-08-07T12:01:22;2.30;;;2.10;;
8058;SDS011;4072;42.668;23.396;2023-08-07T12:03:51;1.55;;;1.38;;
8058;SDS011;4072;42.668;23.396;2023-08-07T12:06:22;1.30;;;1.20;;
8058;SDS011;4072;42.668;23.396;2023-08-07T12:08:53;1.33;;;1.23;;
8058;SDS011;4072;42.668;23.396;2023-08-07T12:11:24;1.10;;;1.10;;
8058;SDS011;4072;42.668;23.396;2023-08-07T12:13:53;1.20;;;1.10;;
8058;SDS011;4072;42.668;23.396;2023-08-07T12:16:21;2.50;;;1.80;;
8058;SDS011;4072;42.668;23.396;2023-08-07T12:18:50;4.20;;;1.27;;
8058;SDS011;4072;42.668;23.396;2023-08-07T12:21:20;2.08;;;1.40;;
8058;SDS011;4072;42.668;23.396;2023-08-07T12:23:51;2.08;;;1.33;;
8058;SDS011;4072;42.668;23.396;2023-08-07T12:26:25;1.20;;;1.10;;
8058;SDS011;4072;42.668;23.396;2023-08-07T12:28:53;1.77;;;1.20;;
8058;SDS011;4072;42.668;23.396;2023-08-07T12:31:21;1.70;;;1.13;;
8058;SDS011;4072;42.668;23.396;2023-08-07T12:33:49;2.95;;;1.30;;
8058;SDS011;4072;42.668;23.396;2023-08-07T12:36:19;1.25;;;1.15;;
8058;SDS011;4072;42.668;23.396;2023-08-07T12:38:47;1.10;;;1.02;;
8058;SDS011;4072;42.668;23.396;2023-08-07T12:41:16;1.45;;;1.35;;
8058;SDS011;4072;42.668;23.396;2023-08-07T12:43:48;1.10;;;1.10;;
8058;SDS011;4072;42.668;23.396;2023-08-07T12:46:16;3.28;;;1.30;;
8058;SDS011;4072;42.668;23.396;2023-08-07T12:48:47;1.38;;;1.27;;
8058;SDS011;4072;42.668;23.396;2023-08-07T12:51:16;2.40;;;1.52;;
8058;SDS011;4072;42.668;23.396;2023-08-07T12:53:45;2.17;;;1.42;;
8058;SDS011;4072;42.668;23.396;2023-08-07T12:56:14;2.67;;;1.23;;
8058;SDS011;4072;42.668;23.396;2023-08-07T12:58:42;1.83;;;1.73;;
8058;SDS011;4072;42.668;23.396;2023-08-07T13:01:15;2.85;;;1.40;;
8058;SDS011;4072;42.668;23.396;2023-08-07T13:03:43;2.25;;;1.52;;
8058;SDS011;4072;42.668;23.396;2023-08-07T13:06:11;2.85;;;1.42;;
8058;SDS011;4072;42.668;23.396;2023-08-07T13:08:40;4.65;;;2.40;;
8058;SDS011;4072;42.668;23.396;2023-08-07T13:11:09;1.48;;;1.38;;
8058;SDS011;4072;42.668;23.396;2023-08-07T13:13:38;1.65;;;1.48;;
8058;SDS011;4072;42.668;23.396;2023-08-07T13:16:08;1.58;;;1.35;;
8058;SDS011;4072;42.668;23.396;2023-08-07T13:18:37;1.33;;;1.23;;
8058;SDS011;4072;42.668;23.396;2023-08-07T13:21:06;1.20;;;1.13;;
8058;SDS011;4072;42.668;23.396;2023-08-07T13:23:35;1.40;;;1.20;;
8058;SDS011;4072;42.668;23.396;2023-08-07T13:26:04;3.20;;;1.70;;
8058;SDS011;4072;42.668;23.396;2023-08-07T13:28:33;3.15;;;1.70;;
8058;SDS011;4072;42.668;23.396;2023-08-07T13:31:01;2.50;;;2.30;;
8058;SDS011;4072;42.668;23.396;2023-08-07T13:33:29;3.03;;;1.30;;
8058;SDS011;4072;42.668;23.396;2023-08-07T13:35:59;1.25;;;1.15;;
8058;SDS011;4072;42.668;23.396;2023-08-07T13:38:28;2.92;;;1.30;;
8058;SDS011;4072;42.668;23.396;2023-08-07T13:40:57;1.42;;;1.33;;
8058;SDS011;4072;42.668;23.396;2023-08-07T13:43:25;1.10;;;1.00;;
8058;SDS011;4072;42.668;23.396;2023-08-07T13:45:53;1.67;;;1.48;;
8058;SDS011;4072;42.668;23.396;2023-08-07T13:48:23;2.85;;;1.70;;
8058;SDS011;4072;42.668;23.396;2023-08-07T13:50:54;1.30;;;1.20;;
8058;SDS011;4072;42.668;23.396;2023-08-07T13:53:24;2.40;;;1.50;;
8058;SDS011;4072;42.668;23.396;2023-08-07T13:55:55;1.35;;;1.25;;
8058;SDS011;4072;42.668;23.396;2023-08-07T13:58:23;1.30;;;1.20;;
8058;SDS011;4072;42.668;23.396;2023-08-07T14:00:51;1.40;;;1.30;;
8058;SDS011;4072;42.668;23.396;2023-08-07T14:03:21;1.70;;;1.50;;
8058;SDS011;4072;42.668;23.396;2023-08-07T14:05:55;1.52;;;1.17;;
8058;SDS011;4072;42.668;23.396;2023-08-07T14:08:26;1.75;;;1.17;;
8058;SDS011;4072;42.668;23.396;2023-08-07T14:10:54;1.80;;;1.50;;
8058;SDS011;4072;42.668;23.396;2023-08-07T14:13:22;2.45;;;1.67;;
8058;SDS011;4072;42.668;23.396;2023-08-07T14:15:51;1.73;;;1.50;;
8058;SDS011;4072;42.668;23.396;2023-08-07T14:18:19;1.35;;;1.25;;
8058;SDS011;4072;42.668;23.396;2023-08-07T14:20:47;1.38;;;1.17;;
8058;SDS011;4072;42.668;23.396;2023-08-07T14:23:30;1.52;;;1.42;;
8058;SDS011;4072;42.668;23.396;2023-08-07T14:26:26;2.13;;;1.40;;
8058;SDS011;4072;42.668;23.396;2023-08-07T14:28:54;1.52;;;1.15;;
8058;SDS011;4072;42.668;23.396;2023-08-07T14:31:23;1.60;;;1.50;;
8058;SDS011;4072;42.668;23.396;2023-08-07T14:33:51;2.47;;;1.65;;
8058;SDS011;4072;42.668;23.396;2023-08-07T14:36:21;3.95;;;1.85;;
8058;SDS011;4072;42.668;23.396;2023-08-07T14:38:51;2.28;;;2.08;;
8058;SDS011;4072;42.668;23.396;2023-08-07T14:41:19;3.58;;;2.10;;
8058;SDS011;4072;42.668;23.396;2023-08-07T14:43:48;1.38;;;1.27;;
8058;SDS011;4072;42.668;23.396;2023-08-07T14:46:16;3.65;;;1.80;;
8058;SDS011;4072;42.668;23.396;2023-08-07T14:48:45;2.92;;;1.70;;
8058;SDS011;4072;42.668;23.396;2023-08-07T14:51:15;1.35;;;1.25;;
8058;SDS011;4072;42.668;23.396;2023-08-07T14:53:43;2.72;;;1.80;;
8058;SDS011;4072;42.668;23.396;2023-08-07T14:56:12;1.73;;;1.48;;
8058;SDS011;4072;42.668;23.396;2023-08-07T14:58:41;1.50;;;1.40;;
8058;SDS011;4072;42.668;23.396;2023-08-07T15:01:11;2.13;;;1.50;;
8058;SDS011;4072;42.668;23.396;2023-08-07T15:03:40;1.42;;;1.20;;
8058;SDS011;4072;42.668;23.396;2023-08-07T15:06:08;3.65;;;1.65;;
8058;SDS011;4072;42.668;23.396;2023-08-07T15:08:36;3.50;;;1.85;;
8058;SDS011;4072;42.668;23.396;2023-08-07T15:11:05;4.82;;;1.55;;
8058;SDS011;4072;42.668;23.396;2023-08-07T15:13:35;1.60;;;1.17;;